CW8443 Weather Reports


Display with metric or nautical units.
time (UTC)temp
F
wind
direction
speed
MPH
gust
MPH
rain 1hr
in
rain 24hr
in
rain mn
in
humidity
%
barometer
mb
20190119111139 43 337 1.0 0.0 0.00 0.00 0.00 36 1015.2
20190119110140 43 335 1.0 0.0 0.00 0.00 0.00 35 1015.2
20190119104139 44 334 1.0 0.0 0.00 0.00 0.00 34 1015.2
20190119103143 44 330 1.0 0.0 0.00 0.00 0.00 34 1015.2
20190119101136 45 325 0.0 0.0 0.00 0.00 0.00 33 1015.4
20190119100137 45 327 0.0 0.0 0.00 0.00 0.00 33 1015.4
20190119095143 45 327 0.0 0.0 0.00 0.00 0.00 35 1015.2
20190119091147 46 145 0.0 0.0 0.00 0.00 0.00 49 1014.9
20190119090144 47 146 0.0 0.0 0.00 0.00 0.00 48 1014.9
20190119084138 48 146 0.0 0.0 0.00 0.00 0.00 46 1014.4
20190119083133 48 146 0.0 0.0 0.00 0.00 0.00 45 1014.4
20190119082142 49 146 1.0 0.0 0.00 0.00 0.00 43 1014.4
20190119075205 51 125 0.0 0.0 0.00 0.00 0.00 36 1014.3
20190119073129 52 125 1.0 0.0 0.00 0.00 0.00 27 1014.3
20190119072138 53 125 0.0 0.0 0.00 0.00 0.00 27 1014.4
20190119071133 53 125 1.0 0.0 0.00 0.00 0.00 27 1014.3
20190119065135 54 121 2.0 0.0 0.00 0.00 0.00 26 1014.5
20190119064130 55 104 2.0 0.0 0.00 0.00 0.00 24 1014.4
20190119063133 56 191 2.0 0.0 0.00 0.00 0.00 22 1014.5
20190119062140 55 68 2.0 0.0 0.00 0.00 0.00 21 1014.5
20190119061132 55 87 3.0 0.0 0.00 0.00 0.00 20 1014.5
20190119060139 55 121 2.0 0.0 0.00 0.00 0.00 19 1014.5
20190119055141 55 66 4.0 0.0 0.00 0.00 0.00 19 1014.5
20190119053135 54 56 2.0 0.0 0.00 0.00 0.00 20 1014.4
20190119051129 54 169 2.0 0.0 0.00 0.00 0.00 18 1014.5
20190119043135 53 176 4.0 0.0 0.00 0.00 0.00 18 1014.6
20190119042145 55 112 2.0 0.0 0.00 0.00 0.00 17 1014.7
20190119040140 53 39 3.0 0.0 0.00 0.00 0.00 18 1014.9
20190119035146 53 170 2.0 0.0 0.00 0.00 0.00 18 1015.1
20190119034131 53 181 3.0 0.0 0.00 0.00 0.00 18 1015.4
20190119031148 54 128 0.0 0.0 0.00 0.00 0.00 18 1015.7
20190119024140 52 5 1.0 0.0 0.00 0.00 0.00 20 1016.4
20190119023143 51 338 2.0 0.0 0.00 0.00 0.00 20 1016.4
20190119022146 51 32 1.0 0.0 0.00 0.00 0.00 21 1016.6
20190119020143 50 321 3.0 0.0 0.00 0.00 0.00 22 1017.1
20190119015132 50 33 3.0 0.0 0.00 0.00 0.00 22 1017.3
20190119011135 48 331 2.0 0.0 0.00 0.00 0.00 24 1017.5
20190119010138 47 356 1.0 0.0 0.00 0.00 0.00 25 1017.5
20190119005129 46 310 2.0 0.0 0.00 0.00 0.00 26 1017.6
20190118230129 32 242 0.0 0.0 0.00 0.00 0.00 50 1017.6
20190118225137 31 244 0.0 0.0 0.00 0.00 0.00 52 1017.5
20190118224143 30 242 0.0 0.0 0.00 0.00 0.00 53 1017.4
20190118222139 28 244 0.0 0.0 0.00 0.00 0.00 56 1017.2
20190118215144 27 239 0.0 0.0 0.00 0.00 0.00 57 1017.0
20190118214132 28 239 0.0 0.0 0.00 0.00 0.00 56 1017.0
20190118213140 28 238 0.0 0.0 0.00 0.00 0.00 56 1017.0
20190118212129 28 239 1.0 0.0 0.00 0.00 0.00 56 1016.8
20190118211138 28 239 0.0 0.0 0.00 0.00 0.00 56 1016.9
20190118210145 28 239 0.0 0.0 0.00 0.00 0.00 55 1016.9
20190118203141 28 239 0.0 0.0 0.00 0.00 0.00 56 1016.5
20190118202129 28 238 0.0 0.0 0.00 0.00 0.00 56 1016.4
20190118201137 28 238 0.0 0.0 0.00 0.00 0.00 56 1016.2
20190118200143 29 238 0.0 0.0 0.00 0.00 0.00 55 1016.3
20190118195130 29 238 0.0 0.0 0.00 0.00 0.00 55 1016.1
20190118194140 29 238 0.0 0.0 0.00 0.00 0.00 53 1016.0
20190118193137 30 238 1.0 0.0 0.00 0.00 0.00 52 1016.0
20190118185134 30 239 0.0 0.0 0.00 0.00 0.00 51 1016.0
20190118184129 30 238 0.0 0.0 0.00 0.00 0.00 51 1015.9
20190118183138 31 238 0.0 0.0 0.00 0.00 0.00 50 1015.9
20190118181131 32 239 1.0 0.0 0.00 0.00 0.00 49 1015.9
20190118175143 32 300 1.0 0.0 0.00 0.00 0.00 47 1015.9
20190118171136 32 241 0.0 0.0 0.00 0.00 0.00 50 1015.9
20190118164141 32 239 2.0 0.0 0.00 0.00 0.00 48 1015.9
20190118163134 32 241 1.0 0.0 0.00 0.00 0.00 48 1015.9
20190118161131 33 239 0.0 0.0 0.00 0.00 0.00 47 1015.7
20190118160137 33 239 1.0 0.0 0.00 0.00 0.00 47 1015.7
20190118155147 33 239 1.0 0.0 0.00 0.00 0.00 46 1015.7
20190118154137 34 227 3.0 0.0 0.00 0.00 0.00 44 1015.6
20190118153142 37 222 3.0 0.0 0.00 0.00 0.00 39 1015.7
20190118151139 38 317 2.0 0.0 0.00 0.00 0.00 31 1015.6
20190118150133 38 330 1.0 0.0 0.00 0.00 0.00 32 1015.6
20190118145142 37 330 0.0 0.0 0.00 0.00 0.00 34 1015.7
20190118141129 35 297 0.0 0.0 0.00 0.00 0.00 41 1015.8
20190118135134 36 297 0.0 0.0 0.00 0.00 0.00 40 1015.9
20190118134146 36 297 0.0 0.0 0.00 0.00 0.00 39 1015.9
20190118130135 37 297 0.0 0.0 0.00 0.00 0.00 39 1015.5
20190118125140 37 296 0.0 0.0 0.00 0.00 0.00 38 1015.4
20190118122139 39 297 0.0 0.0 0.00 0.00 0.00 33 1015.3
20190118121143 39 297 0.0 0.0 0.00 0.00 0.00 32 1015.2
20190118120145 39 293 2.0 0.0 0.00 0.00 0.00 31 1015.2
20190118115134 39 306 2.0 0.0 0.00 0.00 0.00 31 1014.9